createdAt,value
2019-02-14T00:01:45.988Z,18.17
2019-02-14T00:05:58.887Z,18.47
2019-02-14T00:10:11.454Z,18.90
2019-02-14T00:14:23.945Z,18.17
2019-02-14T00:18:36.647Z,18.50
2019-02-14T00:22:49.000Z,18.43
2019-02-14T00:27:01.418Z,18.33
2019-02-14T00:31:14.315Z,16.40
2019-02-14T00:35:26.833Z,17.73
2019-02-14T00:39:39.653Z,18.33
2019-02-14T00:43:52.212Z,17.57
2019-02-14T00:48:04.685Z,16.67
2019-02-14T00:52:17.408Z,16.03
2019-02-14T00:56:29.872Z,16.40
2019-02-14T01:00:43.404Z,15.70
2019-02-14T01:04:55.926Z,16.83
2019-02-14T01:09:09.568Z,16.23
2019-02-14T01:13:22.653Z,17.13
2019-02-14T01:17:35.007Z,16.83
2019-02-14T01:21:48.356Z,15.47
2019-02-14T01:26:00.664Z,14.77
2019-02-14T01:30:13.549Z,15.63
2019-02-14T01:34:26.213Z,15.73
2019-02-14T01:38:38.689Z,15.20
2019-02-14T01:42:51.411Z,15.07
2019-02-14T01:47:03.870Z,14.53
2019-02-14T01:51:16.820Z,15.07
2019-02-14T01:55:29.428Z,14.60
2019-02-14T01:59:41.935Z,17.10
2019-02-14T02:03:54.723Z,16.97
2019-02-14T02:08:08.926Z,14.37
2019-02-14T02:12:21.017Z,15.07
2019-02-14T02:16:33.437Z,15.20
2019-02-14T02:20:46.309Z,14.80
2019-02-14T02:24:58.681Z,16.53
2019-02-14T02:29:10.996Z,17.40
2019-02-14T02:33:23.428Z,16.00
2019-02-14T02:37:36.258Z,16.40
2019-02-14T02:41:48.753Z,16.80
2019-02-14T02:46:01.169Z,16.53
2019-02-14T02:50:14.510Z,17.43
2019-02-14T02:54:26.985Z,17.47
2019-02-14T02:58:39.754Z,17.60
2019-02-14T03:02:52.274Z,16.70
2019-02-14T03:07:04.676Z,16.67
2019-02-14T03:11:17.470Z,17.23
2019-02-14T03:15:30.028Z,16.93
2019-02-14T03:19:43.012Z,16.80
2019-02-14T03:23:55.659Z,17.10
2019-02-14T03:28:07.988Z,16.60
2019-02-14T03:32:20.768Z,16.20
2019-02-14T03:36:33.356Z,17.00
2019-02-14T03:40:46.385Z,18.47
2019-02-14T03:44:58.877Z,17.97
2019-02-14T03:49:11.192Z,17.87
2019-02-14T03:53:23.505Z,16.87
2019-02-14T03:57:36.356Z,17.00
2019-02-14T04:01:48.865Z,17.03
2019-02-14T04:06:01.157Z,17.67
2019-02-14T04:10:14.512Z,17.03
2019-02-14T04:14:26.912Z,17.63
2019-02-14T04:18:39.801Z,17.37
2019-02-14T04:22:52.267Z,17.37
2019-02-14T04:27:04.769Z,17.00
2019-02-14T04:31:17.563Z,15.83
2019-02-14T04:35:30.224Z,17.00
2019-02-14T04:39:43.282Z,15.97
2019-02-14T04:43:55.873Z,16.83
2019-02-14T04:48:08.180Z,15.53
2019-02-14T04:52:21.074Z,16.60
2019-02-14T04:56:33.536Z,16.67
2019-02-14T05:00:46.003Z,17.07
2019-02-14T05:04:58.728Z,15.67
2019-02-14T05:09:12.420Z,15.97
2019-02-14T05:13:25.036Z,17.00
2019-02-14T05:17:37.453Z,16.57
2019-02-14T05:21:50.232Z,16.60
2019-02-14T05:26:02.800Z,18.00
2019-02-14T05:30:15.508Z,15.73
2019-02-14T05:34:28.387Z,16.90
2019-02-14T05:38:40.833Z,16.00
2019-02-14T05:42:53.650Z,15.07
2019-02-14T05:47:06.105Z,16.90
2019-02-14T05:51:19.743Z,17.40
2019-02-14T05:55:32.152Z,16.13
2019-02-14T05:59:45.048Z,17.20
2019-02-14T06:03:57.575Z,16.47
2019-02-14T06:08:09.813Z,16.13
2019-02-14T06:12:22.702Z,18.27
2019-02-14T06:16:35.161Z,17.83
2019-02-14T06:20:48.149Z,17.43
2019-02-14T06:25:00.716Z,18.10
2019-02-14T06:29:13.695Z,18.97
2019-02-14T06:33:26.432Z,19.67
2019-02-14T06:37:39.349Z,19.67
2019-02-14T06:41:51.873Z,18.67
2019-02-14T06:46:04.221Z,19.10
2019-02-14T06:50:17.003Z,16.83
2019-02-14T06:54:29.470Z,18.63
2019-02-14T06:58:41.876Z,18.37
2019-02-14T07:02:54.659Z,18.10
2019-02-14T07:07:07.181Z,17.70
2019-02-14T07:11:20.004Z,18.63
2019-02-14T07:15:32.565Z,19.57
2019-02-14T07:19:45.552Z,20.00
2019-02-14T07:23:58.112Z,17.83
2019-02-14T07:28:10.525Z,17.87
2019-02-14T07:32:23.411Z,17.00
2019-02-14T07:36:36.394Z,18.23
2019-02-14T07:40:49.211Z,21.00
2019-02-14T07:45:01.720Z,19.63
2019-02-14T07:49:14.613Z,18.70
2019-02-14T07:53:27.186Z,19.47
2019-02-14T07:57:39.586Z,19.73
2019-02-14T08:01:52.479Z,19.87
2019-02-14T08:06:04.937Z,19.47
2019-02-14T08:10:18.641Z,19.33
2019-02-14T08:14:30.881Z,20.83
2019-02-14T08:18:43.673Z,20.03
2019-02-14T08:22:56.133Z,18.60
2019-02-14T08:27:08.441Z,19.43
2019-02-14T08:31:20.747Z,18.73
2019-02-14T08:35:33.740Z,18.90
2019-02-14T08:39:46.543Z,19.13
2019-02-14T08:43:59.293Z,17.20
2019-02-14T08:48:11.751Z,18.40
2019-02-14T08:52:24.165Z,18.43
2019-02-14T08:56:36.577Z,18.13
2019-02-14T09:00:49.411Z,17.90
2019-02-14T09:05:01.932Z,17.17
2019-02-14T09:09:15.475Z,18.20
2019-02-14T09:13:27.949Z,16.70
2019-02-14T09:17:40.764Z,17.80
2019-02-14T09:21:53.226Z,17.60
2019-02-14T09:26:05.532Z,18.27
2019-02-14T09:30:18.433Z,18.30
2019-02-14T09:34:30.987Z,17.73
2019-02-14T09:38:43.504Z,17.27
2019-02-14T09:42:56.372Z,16.17
2019-02-14T09:47:08.862Z,16.77
2019-02-14T09:51:21.840Z,17.13
2019-02-14T09:55:34.401Z,15.90
2019-02-14T09:59:46.908Z,15.73
2019-02-14T10:03:59.822Z,17.23
2019-02-14T10:08:13.125Z,15.67
2019-02-14T10:12:25.802Z,16.20
2019-02-14T10:16:38.339Z,14.33
2019-02-14T10:20:51.001Z,13.40
2019-02-14T10:25:03.456Z,13.77
2019-02-14T10:29:16.446Z,12.83
2019-02-14T10:33:29.004Z,12.63
2019-02-14T10:37:41.540Z,13.87
2019-02-14T10:41:54.300Z,13.37
2019-02-14T10:46:06.838Z,13.77
2019-02-14T10:50:19.747Z,13.40
2019-02-14T10:54:32.203Z,13.90
2019-02-14T10:58:44.617Z,13.97
2019-02-14T11:02:57.516Z,13.30
2019-02-14T11:07:09.970Z,12.63
2019-02-14T11:11:22.853Z,11.40
2019-02-14T11:15:35.608Z,12.33
2019-02-14T11:19:48.509Z,12.33
2019-02-14T11:24:01.065Z,12.47
2019-02-14T11:28:13.483Z,13.37
2019-02-14T11:32:26.361Z,13.37
2019-02-14T11:36:38.824Z,14.33
2019-02-14T11:40:51.233Z,13.97
2019-02-14T11:45:04.116Z,14.73
2019-02-14T11:49:16.127Z,13.30
2019-02-14T11:53:29.408Z,14.33
2019-02-14T11:57:42.016Z,13.53
2019-02-14T12:01:55.562Z,14.10
2019-02-14T12:06:07.980Z,13.77
2019-02-14T12:10:20.876Z,14.90
2019-02-14T12:14:33.428Z,14.83
2019-02-14T12:18:46.021Z,14.73
2019-02-14T12:22:58.742Z,14.43
2019-02-14T12:27:11.192Z,14.17
2019-02-14T12:31:24.069Z,15.37
2019-02-14T12:35:36.637Z,14.73
2019-02-14T12:39:49.683Z,13.77
2019-02-14T12:44:02.455Z,13.03
2019-02-14T12:48:14.813Z,13.87
2019-02-14T12:52:27.648Z,13.50
2019-02-14T12:56:40.148Z,12.83
2019-02-14T13:00:53.137Z,13.33
2019-02-14T13:05:05.795Z,13.53
2019-02-14T13:09:19.958Z,12.23
2019-02-14T13:13:32.977Z,11.63
2019-02-14T13:17:45.292Z,12.53
2019-02-14T13:21:58.248Z,13.13
2019-02-14T13:26:10.743Z,12.30
2019-02-14T13:30:23.949Z,13.20
2019-02-14T13:34:36.397Z,13.03
2019-02-14T13:38:48.901Z,14.43
2019-02-14T13:43:01.651Z,13.33
2019-02-14T13:47:14.148Z,12.13
2019-02-14T13:51:27.141Z,12.67
2019-02-14T13:55:39.758Z,13.00
2019-02-14T13:59:52.784Z,11.47
2019-02-14T14:04:05.272Z,11.33
2019-02-14T14:08:17.660Z,11.40
2019-02-14T14:12:30.439Z,11.33
2019-02-14T14:16:42.801Z,9.40
2019-02-14T14:20:55.781Z,10.57
2019-02-14T14:25:08.448Z,9.83
2019-02-14T14:29:21.432Z,9.30
2019-02-14T14:33:33.989Z,9.93
2019-02-14T14:37:46.413Z,10.23
2019-02-14T14:41:59.397Z,8.83
2019-02-14T14:46:22.221Z,9.00
2019-02-14T14:50:34.716Z,9.13
2019-02-14T14:54:47.030Z,9.60
2019-02-14T14:58:59.876Z,9.87
2019-02-14T15:03:12.480Z,9.07
2019-02-14T15:07:24.885Z,8.80
2019-02-14T15:11:37.682Z,8.10
2019-02-14T15:15:50.136Z,8.80
2019-02-14T15:20:05.168Z,7.70
2019-02-14T15:24:19.654Z,8.50
2019-02-14T15:28:34.912Z,8.40
2019-02-14T15:32:49.393Z,9.03
2019-02-14T15:37:04.579Z,8.47
2019-02-14T15:41:19.185Z,8.83
2019-02-14T15:45:34.132Z,8.90
2019-02-14T15:49:49.632Z,8.57
2019-02-14T15:54:04.877Z,7.73
2019-02-14T15:58:20.281Z,7.80
2019-02-14T16:02:36.337Z,8.00
2019-02-14T16:06:50.538Z,6.97
2019-02-14T16:11:03.891Z,6.87
2019-02-14T16:15:16.346Z,6.87
2019-02-14T16:19:29.307Z,7.80
2019-02-14T16:23:41.672Z,7.93
2019-02-14T16:27:54.054Z,8.03
2019-02-14T16:32:07.604Z,7.77
2019-02-14T16:36:20.694Z,8.40
2019-02-14T16:40:38.636Z,8.20
2019-02-14T16:44:48.428Z,7.70
2019-02-14T16:49:00.747Z,8.03
2019-02-14T16:53:13.191Z,8.13
2019-02-14T16:57:25.947Z,7.73
2019-02-14T17:01:39.633Z,7.97
2019-02-14T17:05:52.104Z,8.63
2019-02-14T17:10:05.140Z,8.00
2019-02-14T17:14:17.592Z,7.90
2019-02-14T17:18:30.008Z,9.10
2019-02-14T17:22:42.903Z,9.40
2019-02-14T17:26:55.358Z,9.43
2019-02-14T17:31:08.344Z,9.53
2019-02-14T17:35:20.984Z,9.03
2019-02-14T17:39:34.445Z,8.83
2019-02-14T17:43:46.860Z,8.93
2019-02-14T17:47:59.743Z,9.60
2019-02-14T17:52:13.045Z,8.97
2019-02-14T17:56:26.375Z,9.33
2019-02-14T18:00:40.712Z,10.10
2019-02-14T18:04:53.037Z,9.57
2019-02-14T18:09:07.037Z,10.07
2019-02-14T18:13:19.872Z,9.80
2019-02-14T18:17:32.341Z,10.60
2019-02-14T18:21:45.320Z,11.50
2019-02-14T18:25:57.732Z,10.90
2019-02-14T18:30:10.754Z,10.80
2019-02-14T18:34:23.328Z,11.33
2019-02-14T18:38:35.821Z,10.50
2019-02-14T18:42:48.742Z,10.90
2019-02-14T18:47:01.175Z,11.23
2019-02-14T18:51:14.069Z,10.30
2019-02-14T18:55:26.630Z,10.43
2019-02-14T18:59:39.613Z,9.93
2019-02-14T19:03:52.180Z,10.60
2019-02-14T19:08:04.480Z,9.97
2019-02-14T19:12:17.604Z,10.53
2019-02-14T19:16:30.039Z,10.90
2019-02-14T19:20:43.498Z,11.13
2019-02-14T19:24:56.252Z,10.53
2019-02-14T19:29:08.885Z,11.00
2019-02-14T19:33:21.247Z,9.70
2019-02-14T19:37:33.649Z,11.10
2019-02-14T19:41:46.132Z,10.33
2019-02-14T19:45:59.011Z,10.13
2019-02-14T19:50:11.832Z,10.53
2019-02-14T19:54:24.507Z,9.90
2019-02-14T19:58:36.960Z,10.60
2019-02-14T20:02:50.401Z,11.23
2019-02-14T20:07:02.813Z,11.50
2019-02-14T20:11:15.799Z,10.80
2019-02-14T20:15:36.719Z,10.90
2019-02-14T20:19:43.339Z,10.63
2019-02-14T20:23:56.331Z,10.83
2019-02-14T20:28:08.900Z,10.53
2019-02-14T20:32:21.289Z,9.60
2019-02-14T20:36:34.082Z,9.90
2019-02-14T20:40:46.801Z,10.07
2019-02-14T20:44:59.225Z,9.73
2019-02-14T20:49:11.983Z,10.67
2019-02-14T20:53:24.412Z,11.57
2019-02-14T20:57:37.237Z,10.40
2019-02-14T21:01:49.953Z,9.97
2019-02-14T21:06:02.365Z,10.33
2019-02-14T21:10:15.256Z,11.07
2019-02-14T21:14:27.772Z,12.50
2019-02-14T21:18:40.130Z,12.40
2019-02-14T21:22:52.914Z,12.90
2019-02-14T21:27:05.377Z,12.57
2019-02-14T21:31:18.362Z,14.50
2019-02-14T21:35:30.928Z,13.97
2019-02-14T21:39:43.900Z,13.57
2019-02-14T21:43:56.735Z,14.03
2019-02-14T21:48:09.918Z,14.77
2019-02-14T21:52:22.319Z,14.57
2019-02-14T21:56:34.832Z,14.77
2019-02-14T22:00:48.209Z,16.00
2019-02-14T22:05:01.073Z,15.33
2019-02-14T22:09:13.833Z,14.23
2019-02-14T22:13:27.097Z,15.60
2019-02-14T22:17:39.724Z,14.93
2019-02-14T22:21:52.524Z,15.60
2019-02-14T22:26:05.025Z,16.00
2019-02-14T22:30:18.209Z,14.50
2019-02-14T22:34:30.669Z,16.13
2019-02-14T22:38:43.857Z,17.40
2019-02-14T22:42:56.223Z,17.57
2019-02-14T22:47:09.626Z,18.70
2019-02-14T22:51:21.972Z,18.67
2019-02-14T22:55:34.384Z,18.53
2019-02-14T22:59:47.188Z,19.03
2019-02-14T23:03:59.824Z,18.30
2019-02-14T23:08:12.175Z,18.77
2019-02-14T23:12:25.027Z,19.60
2019-02-14T23:16:37.492Z,18.10
2019-02-14T23:20:50.069Z,18.93
2019-02-14T23:25:03.440Z,18.07
2019-02-14T23:29:16.337Z,19.53
2019-02-14T23:33:28.792Z,17.67
2019-02-14T23:37:41.217Z,16.93
2019-02-14T23:41:54.141Z,18.50
2019-02-14T23:46:06.792Z,18.70
2019-02-14T23:50:20.392Z,18.67
2019-02-14T23:54:32.717Z,18.30
2019-02-14T23:58:45.601Z,18.97
